Time;durP1;ratioP1;P1;durP2;ratioP2;P2;SDS_P1;SDS_P2;PMS_P1;PMS_P2;Temp;Humidity;BMP_temperature;BMP_pressure;BME280_temperature;BME280_humidity;BME280_pressure;Samples;Min_cycle;Max_cycle;Signal;HPM_P1;HPM_P2
2023/03/14 00:00:20;;;;;;;3.72;1.30;;;;;;;11.61;76.73;98984.31;4967130;28;20027;-57
2023/03/14 00:02:50;;;;;;;4.13;1.50;;;;;;;11.55;76.74;98978.66;4965301;28;20105;-58
2023/03/14 00:05:16;;;;;;;4.05;1.50;;;;;;;11.53;76.75;98975.34;4963617;28;20520;-56
2023/03/14 00:07:41;;;;;;;2.28;1.30;;;;;;;11.53;76.61;98974.47;4963005;28;20034;-58
2023/03/14 00:10:10;;;;;;;3.17;1.48;;;;;;;11.50;76.58;98975.59;4966916;28;20042;-59
2023/03/14 00:12:35;;;;;;;3.92;1.65;;;;;;;11.47;76.72;98978.50;4962120;28;20478;-56
2023/03/14 00:15:03;;;;;;;3.50;1.30;;;;;;;11.46;76.92;98974.19;4960408;28;20037;-58
2023/03/14 00:17:29;;;;;;;3.65;1.80;;;;;;;11.49;76.72;98981.84;4966791;28;20034;-55
2023/03/14 00:19:55;;;;;;;4.70;1.25;;;;;;;11.49;76.60;98984.47;4969247;28;20026;-55
2023/03/14 00:22:21;;;;;;;3.00;1.25;;;;;;;11.47;76.66;98996.94;4967674;28;20082;-58
2023/03/14 00:24:47;;;;;;;5.30;1.63;;;;;;;11.44;76.63;98995.41;4968768;28;20022;-57
2023/03/14 00:27:13;;;;;;;3.40;1.10;;;;;;;11.39;76.59;98989.72;4964942;28;20512;-55
2023/03/14 00:29:38;;;;;;;3.90;1.23;;;;;;;11.38;76.79;98976.72;4969140;28;20474;-55
2023/03/14 00:32:04;;;;;;;2.92;1.30;;;;;;;11.35;76.87;98971.72;4960281;28;20097;-58
2023/03/14 00:34:31;;;;;;;3.35;1.30;;;;;;;11.33;76.84;98960.47;4967683;28;20081;-55
2023/03/14 00:36:56;;;;;;;4.45;1.20;;;;;;;11.33;76.82;98963.09;4963163;28;20609;-55
2023/03/14 00:39:22;;;;;;;2.00;0.98;;;;;;;11.31;76.76;98955.34;4968025;28;20038;-57
2023/03/14 00:41:47;;;;;;;4.22;1.52;;;;;;;11.28;76.98;98934.56;4964579;28;20019;-55
2023/03/14 00:44:13;;;;;;;3.60;0.90;;;;;;;11.23;77.11;98929.72;4967909;28;20461;-55
2023/03/14 00:46:39;;;;;;;3.85;1.30;;;;;;;11.21;77.03;98934.28;4968286;28;20026;-54
2023/03/14 00:49:04;;;;;;;2.50;1.20;;;;;;;11.19;77.14;98920.41;4958385;28;20035;-59
2023/03/14 00:51:30;;;;;;;2.75;1.15;;;;;;;11.18;77.22;98913.50;4966557;28;20039;-57
2023/03/14 00:53:55;;;;;;;4.30;1.60;;;;;;;11.17;77.12;98908.38;4964986;28;20030;-55
2023/03/14 00:56:21;;;;;;;3.85;1.30;;;;;;;11.14;77.13;98912.09;4966169;28;20084;-59
2023/03/14 00:58:46;;;;;;;0.88;0.55;;;;;;;11.11;77.34;98901.84;4966704;28;20037;-56
2023/03/14 01:01:18;;;;;;;3.15;1.23;;;;;;;11.07;77.55;98896.03;4963555;28;20023;-55
2023/03/14 01:03:44;;;;;;;;;;;;;;;11.01;77.37;98895.72;4961300;28;20039;-57
2023/03/14 01:06:12;;;;;;;4.05;1.17;;;;;;;11.01;77.48;98907.09;4963142;28;19922;-56
2023/03/14 01:08:38;;;;;;;2.72;1.13;;;;;;;11.01;77.29;98907.09;4964866;28;20058;-57
2023/03/14 01:11:12;;;;;;;1.92;1.00;;;;;;;11.02;77.24;98926.34;4966366;28;20073;-55
2023/03/14 01:13:38;;;;;;;3.22;0.90;;;;;;;11.04;77.21;98916.53;4960947;28;20175;-59
2023/03/14 01:16:08;;;;;;;2.97;1.00;;;;;;;11.02;77.13;98900.88;4947893;28;20035;-56
2023/03/14 01:18:35;;;;;;;5.45;1.02;;;;;;;11.03;77.21;98899.91;4963007;28;20039;-55
2023/03/14 01:21:01;;;;;;;2.13;0.80;;;;;;;11.02;77.17;98889.50;4960049;28;20066;-58
2023/03/14 01:23:27;;;;;;;3.97;1.13;;;;;;;10.97;77.16;98888.09;4967600;28;20077;-59
2023/03/14 01:25:52;;;;;;;2.80;0.70;;;;;;;10.95;77.11;98882.19;4957506;28;20031;-55
2023/03/14 01:28:18;;;;;;;3.00;1.00;;;;;;;10.93;77.36;98878.84;4967680;28;20081;-57
2023/03/14 01:30:43;;;;;;;1.80;1.23;;;;;;;10.91;77.21;98886.03;4965130;28;20034;-56
2023/03/14 01:33:09;;;;;;;2.08;1.00;;;;;;;10.91;77.25;98887.81;4959396;28;20044;-56
2023/03/14 01:35:34;;;;;;;3.10;1.10;;;;;;;10.89;76.96;98872.19;4966313;28;20038;-56
2023/03/14 01:38:00;;;;;;;2.40;0.85;;;;;;;10.88;76.91;98881.03;4970120;28;20042;-58
2023/03/14 01:40:26;;;;;;;2.55;1.42;;;;;;;10.87;77.36;98900.44;4971106;28;20039;-55
2023/03/14 01:43:12;;;;;;;2.55;0.80;;;;;;;10.87;77.08;98910.94;4960514;28;20031;-56
2023/03/14 01:46:05;;;;;;;2.28;1.00;;;;;;;10.86;77.17;98927.72;4967294;28;20030;-56
2023/03/14 01:48:51;;;;;;;5.00;0.88;;;;;;;10.86;76.91;98919.81;4961807;28;20517;-56
2023/03/14 01:51:19;;;;;;;2.47;1.00;;;;;;;10.85;76.92;98918.16;4967753;28;20042;-56
2023/03/14 01:53:47;;;;;;;3.33;1.00;;;;;;;10.86;76.89;98943.50;4969075;28;20027;-59
2023/03/14 01:56:15;;;;;;;2.55;0.80;;;;;;;10.88;76.86;98938.13;4967308;28;20038;-58
2023/03/14 01:58:45;;;;;;;2.22;0.90;;;;;;;10.88;76.64;98946.81;4968669;28;20026;-56
2023/03/14 02:01:11;;;;;;;1.80;0.73;;;;;;;10.91;76.60;98943.94;4966130;28;20081;-56
2023/03/14 02:03:47;;;;;;;2.25;0.90;;;;;;;10.91;76.48;98946.56;4957926;28;20030;-59
2023/03/14 02:06:17;;;;;;;3.17;1.23;;;;;;;10.91;76.44;98937.81;4963449;28;20030;-56
2023/03/14 02:08:47;;;;;;;1.85;0.77;;;;;;;10.92;76.35;98947.38;4954427;28;20041;-58
2023/03/14 02:11:13;;;;;;;1.77;1.00;;;;;;;10.91;76.38;98948.34;4963687;28;20106;-55
2023/03/14 02:13:38;;;;;;;2.13;1.40;;;;;;;10.89;76.58;98961.66;4969808;28;20070;-57
2023/03/14 02:16:04;;;;;;;2.45;1.08;;;;;;;10.89;76.61;98961.66;4961815;28;21246;-57
2023/03/14 02:18:30;;;;;;;1.35;0.70;;;;;;;10.89;76.38;98956.38;4964528;28;20037;-59
2023/03/14 02:21:23;;;;;;;2.30;0.82;;;;;;;10.87;76.34;98953.06;4969947;28;20409;-57
2023/03/14 02:24:20;;;;;;;3.10;0.90;;;;;;;10.86;76.45;98945.31;4957208;28;20038;-56
2023/03/14 02:27:05;;;;;;;2.00;0.82;;;;;;;10.87;76.63;98939.06;4968058;28;20359;-53
2023/03/14 02:29:33;;;;;;;3.20;0.90;;;;;;;10.88;76.47;98927.59;4969784;28;20039;-54
2023/03/14 02:31:58;;;;;;;2.30;1.10;;;;;;;10.89;76.62;98937.97;4961240;28;20078;-56
2023/03/14 02:34:25;;;;;;;2.28;1.10;;;;;;;10.90;76.36;98923.84;4964273;28;20043;-55
2023/03/14 02:36:51;;;;;;;2.33;1.17;;;;;;;10.91;76.45;98914.13;4965962;28;20039;-59
2023/03/14 02:39:27;;;;;;;2.53;1.00;;;;;;;10.91;76.33;98917.63;4966847;28;20038;-59
2023/03/14 02:41:53;;;;;;;1.73;0.77;;;;;;;10.92;76.41;98908.75;4964155;28;20031;-56
2023/03/14 02:44:18;;;;;;;1.38;0.63;;;;;;;10.90;76.45;98921.22;4962665;28;20039;-57
2023/03/14 02:46:44;;;;;;;1.55;0.75;;;;;;;10.93;76.42;98904.31;4951857;28;20043;-56
2023/03/14 02:49:13;;;;;;;2.13;0.80;;;;;;;10.95;76.33;98895.34;4963515;28;20179;-59
2023/03/14 02:51:41;;;;;;;1.40;0.80;;;;;;;10.94;76.20;98869.97;4965407;28;20027;-58
2023/03/14 02:54:07;;;;;;;1.10;0.68;;;;;;;10.94;76.21;98874.41;4968519;28;20042;-57
2023/03/14 02:56:33;;;;;;;2.65;1.08;;;;;;;10.95;76.10;98887.44;4970902;28;20541;-58
2023/03/14 02:58:58;;;;;;;1.60;0.68;;;;;;;10.97;76.07;98879.41;4969625;28;20051;-57
2023/03/14 03:01:24;;;;;;;1.52;1.00;;;;;;;10.99;76.08;98880.09;4965723;28;20085;-56
2023/03/14 03:03:50;;;;;;;5.32;0.95;;;;;;;11.00;76.09;98878.28;4968086;28;20118;-55
2023/03/14 03:06:16;;;;;;;2.58;0.90;;;;;;;10.98;76.09;98876.63;4959047;28;20092;-56
2023/03/14 03:08:41;;;;;;;2.35;0.88;;;;;;;10.97;75.99;98872.31;4965877;28;20034;-59
2023/03/14 03:11:07;;;;;;;2.00;0.80;;;;;;;10.98;75.94;98871.34;4970182;28;20086;-55
2023/03/14 03:13:32;;;;;;;1.52;0.82;;;;;;;10.97;75.90;98864.41;4968811;28;20096;-55
2023/03/14 03:15:58;;;;;;;1.60;0.70;;;;;;;10.96;76.00;98868.06;4969614;28;20031;-56
2023/03/14 03:18:23;;;;;;;1.60;0.73;;;;;;;10.94;76.31;98858.59;4969923;28;20062;-58
2023/03/14 03:20:49;;;;;;;4.25;1.33;;;;;;;10.92;76.27;98848.22;4970452;28;20023;-57
2023/03/14 03:23:14;;;;;;;1.38;0.60;;;;;;;10.90;76.30;98846.69;4962413;28;20045;-56
2023/03/14 03:25:40;;;;;;;2.72;0.70;;;;;;;10.86;76.51;98837.44;4964430;28;20065;-59
2023/03/14 03:28:07;;;;;;;0.55;0.30;;;;;;;10.82;76.37;98837.69;4969754;28;20057;-56
2023/03/14 03:30:37;;;;;;;1.83;0.90;;;;;;;10.82;76.45;98829.81;4967079;28;20053;-56
2023/03/14 03:33:02;;;;;;;1.10;0.65;;;;;;;10.80;76.50;98830.91;4970423;28;20561;-55
2023/03/14 03:35:28;;;;;;;2.33;0.70;;;;;;;10.78;76.48;98832.84;4964358;28;20122;-59
2023/03/14 03:37:53;;;;;;;1.95;0.80;;;;;;;10.77;76.46;98825.94;4969496;28;20544;-56
2023/03/14 03:40:19;;;;;;;2.08;0.88;;;;;;;10.75;76.69;98809.44;4965813;28;20040;-59
2023/03/14 03:42:44;;;;;;;4.03;1.70;;;;;;;10.75;76.71;98806.81;4962955;28;20039;-58
2023/03/14 03:45:10;;;;;;;3.03;1.02;;;;;;;10.75;76.47;98806.81;4968993;28;20413;-59
2023/03/14 03:47:35;;;;;;;2.00;0.82;;;;;;;10.74;76.70;98805.97;4968181;28;20085;-56
2023/03/14 03:50:01;;;;;;;1.15;0.60;;;;;;;10.75;76.65;98807.63;4966927;28;20085;-59
2023/03/14 03:52:26;;;;;;;1.25;0.57;;;;;;;10.76;76.67;98805.84;4964716;28;20126;-57
2023/03/14 03:54:52;;;;;;;2.47;0.80;;;;;;;10.76;76.68;98809.28;4970448;28;20035;-58
2023/03/14 03:57:17;;;;;;;2.40;0.80;;;;;;;10.79;76.52;98810.84;4958159;28;20153;-57
2023/03/14 03:59:42;;;;;;;2.53;1.35;;;;;;;10.80;76.45;98825.66;4965268;28;20866;-59
2023/03/14 04:02:08;;;;;;;2.85;1.23;;;;;;;10.82;76.57;98821.06;4962925;28;20042;-56
2023/03/14 04:04:33;;;;;;;1.85;0.80;;;;;;;10.84;76.49;98827.03;4965433;28;20045;-59
2023/03/14 04:06:59;;;;;;;2.13;0.82;;;;;;;10.87;76.34;98816.22;4968610;28;20041;-55
2023/03/14 04:09:24;;;;;;;1.92;0.60;;;;;;;10.89;76.24;98830.09;4965916;28;20050;-58
2023/03/14 04:11:50;;;;;;;1.90;0.68;;;;;;;10.89;76.05;98822.19;4961024;28;20074;-55
2023/03/14 04:14:16;;;;;;;2.47;1.27;;;;;;;10.88;76.10;98820.53;4951471;28;20035;-58
2023/03/14 04:16:41;;;;;;;2.85;1.00;;;;;;;10.85;76.15;98826.06;4957155;28;20030;-57
2023/03/14 04:19:07;;;;;;;4.05;1.60;;;;;;;10.83;76.25;98815.69;4968709;28;20042;-56
2023/03/14 04:21:32;;;;;;;2.80;0.68;;;;;;;10.86;76.21;98829.53;4959804;28;20050;-55
2023/03/14 04:23:57;;;;;;;2.10;0.85;;;;;;;10.88;76.20;98823.16;4958675;28;20041;-59
2023/03/14 04:26:23;;;;;;;2.60;1.17;;;;;;;10.89;76.00;98816.94;4962881;28;20081;-55
2023/03/14 04:28:49;;;;;;;1.65;0.80;;;;;;;10.90;76.12;98821.22;4966758;28;20042;-59
2023/03/14 04:31:20;;;;;;;1.90;0.93;;;;;;;10.89;76.04;98814.28;4968815;28;20037;-56
2023/03/14 04:33:46;;;;;;;1.20;0.60;;;;;;;10.85;76.29;98836.59;4966647;28;20477;-59
2023/03/14 04:36:12;;;;;;;2.08;0.77;;;;;;;10.86;76.07;98832.97;4966896;28;20037;-58
2023/03/14 04:38:37;;;;;;;1.83;0.80;;;;;;;10.85;76.04;98812.09;4966377;28;20055;-55
2023/03/14 04:41:03;;;;;;;3.03;0.80;;;;;;;10.81;76.11;98817.63;4961307;28;20061;-56
2023/03/14 04:43:29;;;;;;;1.80;0.70;;;;;;;10.80;76.07;98820.41;4961182;28;20389;-59
2023/03/14 04:45:55;;;;;;;1.05;0.70;;;;;;;10.77;76.08;98816.22;4966904;28;20044;-58
2023/03/14 04:48:21;;;;;;;2.00;0.90;;;;;;;10.76;76.42;98800.59;4966886;28;20030;-60
2023/03/14 04:50:47;;;;;;;1.17;0.70;;;;;;;10.74;76.20;98798.06;4969382;28;20035;-59
2023/03/14 04:53:13;;;;;;;2.10;1.13;;;;;;;10.72;76.21;98793.94;4962735;28;20042;-59
2023/03/14 04:55:39;;;;;;;3.60;0.93;;;;;;;10.71;76.25;98798.38;4963544;28;20031;-57
2023/03/14 04:58:04;;;;;;;1.20;0.68;;;;;;;10.72;76.17;98791.28;4961097;28;20129;-56
2023/03/14 05:00:30;;;;;;;3.70;0.90;;;;;;;10.70;76.28;98809.00;4964596;28;20038;-57
2023/03/14 05:02:55;;;;;;;2.33;0.80;;;;;;;10.67;76.25;98794.34;4964274;28;20131;-57
2023/03/14 05:05:21;;;;;;;2.50;0.80;;;;;;;10.65;76.34;98786.59;4945149;28;20117;-57
2023/03/14 05:07:47;;;;;;;3.50;1.15;;;;;;;10.63;76.55;98777.16;4958703;28;20035;-56
2023/03/14 05:10:12;;;;;;;2.42;1.27;;;;;;;10.60;76.50;98775.66;4961185;28;20733;-57
2023/03/14 05:12:38;;;;;;;3.03;1.40;;;;;;;10.60;76.51;98777.44;4963159;28;20042;-57
2023/03/14 05:15:04;;;;;;;3.70;0.88;;;;;;;10.57;76.45;98772.47;4961889;28;20035;-57
2023/03/14 05:17:30;;;;;;;3.03;1.27;;;;;;;10.54;76.60;98768.28;4962004;28;20043;-55
2023/03/14 05:19:55;;;;;;;3.63;1.63;;;;;;;10.52;76.67;98763.19;4969382;28;20035;-57
2023/03/14 05:22:21;;;;;;;2.20;0.90;;;;;;;10.51;76.56;98755.44;4961605;28;20030;-57
2023/03/14 05:24:46;;;;;;;2.00;0.60;;;;;;;10.49;76.59;98752.13;4960696;28;20050;-57
2023/03/14 05:27:13;;;;;;;4.63;1.38;;;;;;;10.46;76.68;98755.84;4963809;28;20118;-58
2023/03/14 05:29:38;;;;;;;3.55;0.70;;;;;;;10.44;76.80;98765.66;4963543;28;20042;-59
2023/03/14 05:32:04;;;;;;;1.85;0.80;;;;;;;10.45;76.76;98759.44;4957109;28;20038;-58
2023/03/14 05:34:30;;;;;;;1.88;0.70;;;;;;;10.45;76.58;98750.72;4961550;28;20046;-60
2023/03/14 05:36:56;;;;;;;2.85;1.00;;;;;;;10.46;76.45;98752.38;4963298;28;20039;-56
2023/03/14 05:39:21;;;;;;;2.25;0.88;;;;;;;10.45;76.56;98745.47;4951719;28;20613;-55
2023/03/14 05:41:47;;;;;;;1.95;0.82;;;;;;;10.46;76.39;98739.25;4957790;28;20077;-56
2023/03/14 05:44:12;;;;;;;3.00;1.20;;;;;;;10.45;76.35;98737.56;4953214;28;20034;-55
2023/03/14 05:46:38;;;;;;;1.67;0.95;;;;;;;10.45;76.35;98732.31;4957610;28;20189;-58
2023/03/14 05:49:03;;;;;;;2.83;1.52;;;;;;;10.47;76.39;98735.66;4962768;28;20035;-59
2023/03/14 05:51:29;;;;;;;9.75;2.80;;;;;;;10.46;76.15;98729.53;4966044;28;20162;-57
2023/03/14 05:53:54;;;;;;;9.55;4.20;;;;;;;10.49;76.30;98749.50;4969363;28;20035;-55
2023/03/14 05:56:20;;;;;;;6.18;1.83;;;;;;;10.49;76.30;98731.91;4966730;28;20053;-59
2023/03/14 05:58:45;;;;;;;4.35;1.95;;;;;;;10.51;76.31;98727.34;4961759;28;20027;-56
2023/03/14 06:01:11;;;;;;;3.40;1.30;;;;;;;10.53;76.18;98724.56;4944716;28;20849;-58
2023/03/14 06:03:36;;;;;;;7.18;2.30;;;;;;;10.54;76.12;98726.22;4964233;28;20030;-58
2023/03/14 06:06:02;;;;;;;6.03;2.83;;;;;;;10.56;75.98;98724.28;4959459;28;20430;-59
2023/03/14 06:08:28;;;;;;;3.33;1.30;;;;;;;10.56;76.01;98726.91;4965198;28;20027;-56
2023/03/14 06:10:54;;;;;;;3.50;1.88;;;;;;;10.58;75.87;98729.44;4969212;28;20097;-59
2023/03/14 06:13:19;;;;;;;4.47;1.00;;;;;;;10.62;75.69;98743.94;4969059;28;20567;-56
2023/03/14 06:15:45;;;;;;;2.08;0.90;;;;;;;10.65;75.57;98748.94;4958029;28;20042;-59
2023/03/14 06:18:12;;;;;;;2.47;1.23;;;;;;;10.70;75.54;98745.88;4967896;28;20058;-59
2023/03/14 06:20:41;;;;;;;2.75;0.98;;;;;;;10.73;75.35;98743.81;4962108;28;20027;-59
2023/03/14 06:23:08;;;;;;;2.55;1.27;;;;;;;10.78;75.16;98748.66;4964633;28;20705;-59
2023/03/14 06:25:34;;;;;;;4.28;1.00;;;;;;;10.82;74.96;98755.28;4971246;28;20034;-58
2023/03/14 06:27:59;;;;;;;2.25;1.10;;;;;;;10.84;74.82;98748.09;4960712;28;20118;-60
2023/03/14 06:30:25;;;;;;;2.95;0.70;;;;;;;10.85;74.85;98760.28;4963115;28;20035;-59
2023/03/14 06:32:51;;;;;;;1.70;0.63;;;;;;;10.87;74.70;98758.34;4963995;28;20117;-60
2023/03/14 06:35:16;;;;;;;3.67;1.02;;;;;;;10.88;74.73;98751.31;4966588;28;20042;-58
2023/03/14 06:37:42;;;;;;;1.20;0.77;;;;;;;10.90;74.50;98755.44;4968501;28;20109;-57
2023/03/14 06:40:09;;;;;;;2.83;1.15;;;;;;;10.92;74.48;98750.88;4964986;28;20037;-61
2023/03/14 06:42:35;;;;;;;3.22;1.02;;;;;;;10.95;74.30;98755.88;4963243;28;20026;-56
2023/03/14 06:45:00;;;;;;;3.55;1.20;;;;;;;10.97;74.30;98766.25;4963888;28;20030;-58
2023/03/14 06:47:26;;;;;;;2.45;1.05;;;;;;;10.97;74.16;98766.25;4959579;28;20035;-57
2023/03/14 06:49:51;;;;;;;2.20;1.05;;;;;;;11.00;74.17;98768.59;4968205;28;20446;-57
2023/03/14 06:52:16;;;;;;;2.88;1.10;;;;;;;11.06;73.98;98772.47;4966885;28;20076;-58
2023/03/14 06:54:42;;;;;;;3.90;1.00;;;;;;;11.08;73.80;98763.44;4962005;28;20046;-59
2023/03/14 06:57:07;;;;;;;1.95;0.80;;;;;;;11.10;73.49;98758.06;4969336;28;20038;-58
2023/03/14 06:59:33;;;;;;;3.35;1.15;;;;;;;11.16;73.44;98772.47;4963145;28;20043;-58
2023/03/14 07:01:58;;;;;;;5.03;1.63;;;;;;;11.24;73.27;98769.94;4967603;28;20031;-54
2023/03/14 07:04:24;;;;;;;1.70;0.70;;;;;;;11.32;72.95;98761.34;4960477;28;20050;-56
2023/03/14 07:06:49;;;;;;;2.90;1.05;;;;;;;11.37;72.80;98749.41;4970846;28;20078;-55
2023/03/14 07:09:17;;;;;;;2.53;0.80;;;;;;;11.43;72.50;98745.34;4968294;28;20043;-56
2023/03/14 07:11:42;;;;;;;1.50;1.05;;;;;;;11.51;72.21;98745.50;4965279;28;20031;-56
2023/03/14 07:14:08;;;;;;;3.63;0.93;;;;;;;11.57;71.94;98758.06;4963007;28;20484;-59
2023/03/14 07:16:34;;;;;;;2.28;0.90;;;;;;;11.61;71.71;98760.41;4966625;28;20038;-56
2023/03/14 07:19:00;;;;;;;3.70;1.25;;;;;;;11.63;71.58;98769.00;4959698;28;20042;-59
2023/03/14 07:21:26;;;;;;;2.53;1.65;;;;;;;11.65;71.46;98762.63;4956106;28;20390;-58
2023/03/14 07:23:52;;;;;;;3.30;1.00;;;;;;;11.67;71.42;98767.75;4966304;28;20026;-56
2023/03/14 07:26:17;;;;;;;3.10;1.30;;;;;;;11.63;71.37;98769.00;4964209;28;20090;-58
2023/03/14 07:28:43;;;;;;;1.83;0.90;;;;;;;11.59;71.48;98779.81;4967171;28;20034;-57
2023/03/14 07:31:08;;;;;;;0.93;0.52;;;;;;;11.55;71.27;98783.75;4969083;28;20038;-57
2023/03/14 07:33:34;;;;;;;3.28;1.20;;;;;;;11.61;71.11;98792.03;4970899;28;20444;-55
2023/03/14 07:36:00;;;;;;;1.92;0.88;;;;;;;11.70;70.93;98785.91;4961734;28;20441;-55
2023/03/14 07:38:26;;;;;;;2.33;0.90;;;;;;;11.87;70.31;98792.22;4968809;28;20031;-54
2023/03/14 07:41:01;;;;;;;3.35;0.80;;;;;;;11.99;69.76;98790.28;4959453;28;20055;-54
2023/03/14 07:43:26;;;;;;;2.85;0.75;;;;;;;11.99;69.90;98790.28;4970359;28;20023;-53
2023/03/14 07:45:52;;;;;;;2.17;0.80;;;;;;;11.95;70.08;98792.31;4963495;28;20058;-56
2023/03/14 07:48:17;;;;;;;2.70;0.80;;;;;;;11.85;70.02;98792.38;4966554;28;21389;-55
2023/03/14 07:50:43;;;;;;;3.08;1.00;;;;;;;11.78;70.25;98793.09;4966851;28;20031;-55
2023/03/14 07:53:08;;;;;;;3.75;1.10;;;;;;;11.70;70.06;98797.28;4970367;28;20043;-55
2023/03/14 07:55:34;;;;;;;2.70;1.33;;;;;;;11.67;70.24;98802.00;4964017;28;20050;-54
2023/03/14 07:57:59;;;;;;;2.00;0.90;;;;;;;11.62;70.20;98799.81;4964837;28;20125;-53
2023/03/14 08:00:25;;;;;;;2.28;1.00;;;;;;;11.61;70.33;98808.69;4970455;28;20038;-59
2023/03/14 08:02:50;;;;;;;2.97;1.00;;;;;;;11.59;70.36;98806.16;4964583;28;20029;-56
2023/03/14 08:05:16;;;;;;;6.50;1.20;;;;;;;11.61;70.17;98807.84;4960208;28;20031;-53
2023/03/14 08:07:41;;;;;;;2.40;0.88;;;;;;;11.58;70.35;98804.50;4960651;28;20474;-55
2023/03/14 08:10:08;;;;;;;3.20;0.85;;;;;;;11.54;70.29;98811.06;4967876;28;20064;-55
2023/03/14 08:12:33;;;;;;;4.03;1.17;;;;;;;11.51;70.30;98807.84;4968153;28;20037;-53
2023/03/14 08:14:59;;;;;;;4.40;0.85;;;;;;;11.48;70.36;98816.88;4961029;28;20034;-55
2023/03/14 08:17:25;;;;;;;3.00;0.98;;;;;;;11.44;70.31;98807.59;4965513;28;20043;-54
2023/03/14 08:19:50;;;;;;;4.65;1.13;;;;;;;11.41;70.26;98805.25;4967021;28;20023;-53
2023/03/14 08:22:16;;;;;;;2.70;0.82;;;;;;;11.41;70.38;98807.91;4968736;28;20122;-53
2023/03/14 08:24:41;;;;;;;3.65;0.77;;;;;;;11.39;70.38;98809.84;4972200;28;20041;-57
2023/03/14 08:27:07;;;;;;;5.22;0.98;;;;;;;11.38;70.28;98806.34;4968093;28;20035;-52
2023/03/14 08:29:32;;;;;;;2.72;1.10;;;;;;;11.39;70.31;98807.19;4963246;28;20034;-54
2023/03/14 08:31:58;;;;;;;3.33;0.98;;;;;;;11.41;70.26;98800.00;4968123;28;20035;-53
2023/03/14 08:34:23;;;;;;;2.42;0.90;;;;;;;11.43;70.33;98801.50;4966197;28;20489;-54
2023/03/14 08:36:49;;;;;;;4.13;1.30;;;;;;;11.46;70.23;98800.38;4964219;28;20473;-54
2023/03/14 08:39:14;;;;;;;3.58;0.90;;;;;;;11.49;70.10;98800.09;4966086;28;20604;-55
2023/03/14 08:41:42;;;;;;;2.53;0.73;;;;;;;11.54;70.03;98791.78;4969099;28;20550;-53
2023/03/14 08:44:08;;;;;;;2.80;1.00;;;;;;;11.64;69.35;98797.00;4985866;28;20030;-53
2023/03/14 08:46:34;;;;;;;3.63;1.00;;;;;;;11.69;69.18;98794.78;4968878;28;20046;-53
2023/03/14 08:49:00;;;;;;;3.42;0.82;;;;;;;11.77;68.98;98786.16;4970919;28;20050;-55
2023/03/14 08:51:25;;;;;;;6.70;1.50;;;;;;;11.82;68.78;98790.03;4966176;28;20054;-53
2023/03/14 08:53:51;;;;;;;3.20;1.17;;;;;;;11.93;68.60;98785.53;4967661;28;20034;-53
2023/03/14 08:56:16;;;;;;;4.53;1.33;;;;;;;12.17;68.31;98787.69;4970679;28;20019;-56
2023/03/14 08:58:42;;;;;;;4.25;1.23;;;;;;;12.39;67.45;98791.72;4966930;28;20065;-54
2023/03/14 09:01:10;;;;;;;6.68;1.65;;;;;;;12.71;66.90;98793.03;4971293;28;20027;-54
2023/03/14 09:03:35;;;;;;;8.27;1.90;;;;;;;12.96;66.30;98795.88;4965213;28;20049;-55
2023/03/14 09:06:06;;;;;;;3.80;0.90;;;;;;;13.17;65.57;98794.75;4966378;28;20026;-55
2023/03/14 09:08:32;;;;;;;4.25;0.98;;;;;;;13.30;64.92;98789.06;4970080;28;20544;-53
2023/03/14 09:10:57;;;;;;;2.50;1.08;;;;;;;13.41;64.76;98792.28;4964221;28;20070;-54
2023/03/14 09:13:23;;;;;;;4.45;0.95;;;;;;;13.51;64.45;98780.81;4970685;28;20049;-53
2023/03/14 09:15:52;;;;;;;2.75;0.77;;;;;;;13.65;64.12;98782.03;4968191;28;20034;-53
2023/03/14 09:18:18;;;;;;;9.13;1.27;;;;;;;13.79;63.84;98786.75;4962823;28;20031;-55
2023/03/14 09:20:43;;;;;;;5.60;1.00;;;;;;;13.86;63.57;98779.00;4967963;28;20054;-59
2023/03/14 09:23:08;;;;;;;2.38;0.55;;;;;;;13.85;63.24;98788.75;4977577;28;20035;-58
2023/03/14 09:25:34;;;;;;;4.35;0.80;;;;;;;13.78;63.36;98779.78;4969095;28;20035;-60
2023/03/14 09:27:59;;;;;;;2.90;0.80;;;;;;;13.65;63.39;98782.88;4967973;28;20410;-60
2023/03/14 09:30:25;;;;;;;5.80;1.58;;;;;;;13.64;63.30;98780.38;4970801;28;20035;-60
2023/03/14 09:32:50;;;;;;;4.60;1.00;;;;;;;13.61;63.35;98784.19;4971512;28;20023;-61
2023/03/14 09:35:16;;;;;;;3.58;0.75;;;;;;;13.55;63.34;98776.84;4966656;28;20098;-59
2023/03/14 09:37:42;;;;;;;3.53;0.60;;;;;;;13.62;62.87;98777.06;4967028;28;20035;-61
2023/03/14 09:40:13;;;;;;;2.40;0.73;;;;;;;13.76;62.57;98773.03;4964698;28;20046;-58
2023/03/14 09:42:40;;;;;;;2.33;0.77;;;;;;;13.71;62.82;98773.50;4968117;28;20033;-58
2023/03/14 09:45:12;;;;;;;0.95;0.70;;;;;;;13.62;62.61;98767.34;4963466;28;20043;-60
2023/03/14 09:47:39;;;;;;;2.00;0.68;;;;;;;13.52;62.58;98774.56;4963332;28;20023;-57
2023/03/14 09:50:14;;;;;;;4.32;0.93;;;;;;;13.53;61.67;98786.78;4967338;28;20498;-60
2023/03/14 09:52:42;;;;;;;3.00;0.65;;;;;;;13.56;61.90;98779.38;4958007;28;20093;-59
2023/03/14 09:55:22;;;;;;;2.83;0.60;;;;;;;13.66;61.56;98784.53;4968744;28;20109;-61
2023/03/14 09:57:49;;;;;;;1.92;0.57;;;;;;;13.87;61.33;98780.66;4969494;28;20019;-61
2023/03/14 10:00:27;;;;;;;5.38;1.00;;;;;;;14.00;61.34;98778.41;4970347;28;20039;-60
2023/03/14 10:03:14;;;;;;;4.32;1.20;;;;;;;14.16;61.21;98779.47;4971304;28;20030;-60
2023/03/14 10:05:41;;;;;;;2.88;1.00;;;;;;;14.42;61.15;98789.97;4962621;28;20101;-59
2023/03/14 10:08:10;;;;;;;4.25;1.02;;;;;;;14.65;60.57;98789.38;4971549;28;20033;-60
2023/03/14 10:10:36;;;;;;;4.18;1.05;;;;;;;14.71;60.55;98794.03;4971297;28;20088;-59
2023/03/14 10:13:12;;;;;;;3.47;0.80;;;;;;;14.69;59.89;98779.31;4974303;28;20132;-58
2023/03/14 10:15:38;;;;;;;2.80;0.77;;;;;;;14.74;59.84;98790.25;4962965;28;20035;-58
2023/03/14 10:18:11;;;;;;;3.80;0.63;;;;;;;14.77;58.68;98813.72;4965647;28;20035;-58
2023/03/14 10:20:38;;;;;;;2.55;0.50;;;;;;;14.75;58.56;98791.88;4961345;28;20026;-57
2023/03/14 10:23:19;;;;;;;5.47;0.80;;;;;;;14.78;57.88;98802.13;4963226;28;20122;-58
2023/03/14 10:25:58;;;;;;;3.38;0.82;;;;;;;14.77;57.51;98793.38;4962750;28;20068;-59
2023/03/14 10:28:26;;;;;;;3.35;1.05;;;;;;;14.79;57.14;98795.84;4970273;28;20109;-57
2023/03/14 10:30:52;;;;;;;1.48;0.55;;;;;;;14.84;57.74;98788.25;4972775;28;20018;-60
2023/03/14 10:33:26;;;;;;;7.00;0.57;;;;;;;14.98;57.44;98793.88;4973355;28;20038;-60
2023/03/14 10:35:58;;;;;;;4.10;0.88;;;;;;;14.94;57.42;98799.50;4968151;28;20023;-58
2023/03/14 10:38:27;;;;;;;3.03;0.68;;;;;;;14.69;57.07;98806.59;4973511;28;20038;-59
2023/03/14 10:40:54;;;;;;;2.33;0.70;;;;;;;14.51;57.13;98792.66;4966852;28;20062;-59
2023/03/14 10:43:26;;;;;;;2.15;0.68;;;;;;;14.45;56.99;98802.03;4968615;28;20528;-60
2023/03/14 10:46:12;;;;;;;2.38;0.60;;;;;;;14.32;57.12;98813.91;4964965;28;20030;-57
2023/03/14 10:48:41;;;;;;;1.48;0.38;;;;;;;14.17;57.92;98802.28;4971789;28;20050;-59
2023/03/14 10:51:30;;;;;;;4.53;0.65;;;;;;;14.05;57.75;98803.56;4971342;28;20034;-61
2023/03/14 10:54:00;;;;;;;2.17;0.70;;;;;;;13.98;57.83;98825.34;4972180;28;20497;-61
2023/03/14 10:56:27;;;;;;;3.78;0.90;;;;;;;13.99;58.12;98812.94;4963841;28;20030;-57
2023/03/14 10:58:57;;;;;;;1.50;0.55;;;;;;;13.98;58.01;98808.66;4967959;28;21215;-57
2023/03/14 11:01:40;;;;;;;4.13;0.65;;;;;;;13.99;57.49;98810.31;4964081;28;20111;-56
2023/03/14 11:04:31;;;;;;;2.47;0.60;;;;;;;13.91;57.57;98821.66;4982850;28;20118;-56
2023/03/14 11:07:14;;;;;;;2.42;0.68;;;;;;;13.92;57.72;98825.97;4964915;28;20045;-60
2023/03/14 11:09:56;;;;;;;3.30;0.70;;;;;;;13.97;57.53;98826.34;4967057;28;20026;-59
2023/03/14 11:13:10;;;;;;;2.38;0.73;;;;;;;14.02;56.46;98834.59;4957964;28;20501;-57
2023/03/14 11:16:00;;;;;;;6.82;0.88;;;;;;;14.07;57.54;98823.56;4957406;28;20070;-58
2023/03/14 11:19:04;;;;;;;5.75;0.60;;;;;;;14.00;57.00;98826.00;4961089;28;20397;-58
2023/03/14 11:21:46;;;;;;;1.50;0.60;;;;;;;14.00;57.81;98826.00;4968180;28;20035;-58
2023/03/14 11:24:49;;;;;;;4.90;0.88;;;;;;;13.94;57.29;98826.66;4969507;28;20027;-57
2023/03/14 11:27:22;;;;;;;3.42;1.33;;;;;;;13.89;58.15;98830.75;4962512;28;20034;-57
2023/03/14 11:29:56;;;;;;;2.92;1.10;;;;;;;13.79;58.02;98839.59;4966758;28;20114;-59
2023/03/14 11:32:34;;;;;;;5.28;1.02;;;;;;;13.69;58.75;98826.50;4971289;28;20118;-58
2023/03/14 11:35:05;;;;;;;2.38;0.85;;;;;;;13.64;58.78;98834.06;4957671;28;20027;-57
2023/03/14 11:37:40;;;;;;;0.73;0.40;;;;;;;13.62;59.06;98828.13;4969719;28;20039;-57